sensor_id;sensor_type;location;lat;lon;timestamp;P1;durP1;ratioP1;P2;durP2;ratioP2
69386;SDS011;56575;48.942;8.404;2022-12-17T00:01:53;27.67;;;11.32;;
69386;SDS011;56575;48.942;8.404;2022-12-17T00:04:37;27.17;;;10.98;;
69386;SDS011;56575;48.942;8.404;2022-12-17T00:07:22;27.90;;;11.23;;
69386;SDS011;56575;48.942;8.404;2022-12-17T00:10:12;23.77;;;10.20;;
69386;SDS011;56575;48.942;8.404;2022-12-17T00:12:55;24.13;;;10.07;;
69386;SDS011;56575;48.942;8.404;2022-12-17T00:15:39;21.58;;;10.52;;
69386;SDS011;56575;48.942;8.404;2022-12-17T00:18:23;28.58;;;10.45;;
69386;SDS011;56575;48.942;8.404;2022-12-17T00:21:08;24.40;;;10.57;;
69386;SDS011;56575;48.942;8.404;2022-12-17T00:23:52;25.57;;;10.00;;
69386;SDS011;56575;48.942;8.404;2022-12-17T00:26:36;21.80;;;9.93;;
69386;SDS011;56575;48.942;8.404;2022-12-17T00:29:21;26.08;;;11.05;;
69386;SDS011;56575;48.942;8.404;2022-12-17T00:32:05;26.27;;;10.95;;
69386;SDS011;56575;48.942;8.404;2022-12-17T00:34:49;27.45;;;10.35;;
69386;SDS011;56575;48.942;8.404;2022-12-17T00:37:33;24.33;;;10.33;;
69386;SDS011;56575;48.942;8.404;2022-12-17T00:40:17;24.40;;;9.73;;
69386;SDS011;56575;48.942;8.404;2022-12-17T00:43:02;23.20;;;9.73;;
69386;SDS011;56575;48.942;8.404;2022-12-17T00:45:50;25.35;;;10.02;;
69386;SDS011;56575;48.942;8.404;2022-12-17T00:48:34;25.98;;;10.43;;
69386;SDS011;56575;48.942;8.404;2022-12-17T00:51:19;22.00;;;10.20;;
69386;SDS011;56575;48.942;8.404;2022-12-17T00:54:11;22.17;;;9.45;;
69386;SDS011;56575;48.942;8.404;2022-12-17T00:56:56;25.25;;;10.02;;
69386;SDS011;56575;48.942;8.404;2022-12-17T00:59:39;25.48;;;10.27;;
69386;SDS011;56575;48.942;8.404;2022-12-17T01:02:24;25.58;;;10.40;;
69386;SDS011;56575;48.942;8.404;2022-12-17T01:05:08;25.73;;;10.40;;
69386;SDS011;56575;48.942;8.404;2022-12-17T01:07:54;24.85;;;10.25;;
69386;SDS011;56575;48.942;8.404;2022-12-17T01:10:38;28.63;;;10.90;;
69386;SDS011;56575;48.942;8.404;2022-12-17T01:13:22;25.65;;;10.70;;
69386;SDS011;56575;48.942;8.404;2022-12-17T01:16:07;24.08;;;9.90;;
69386;SDS011;56575;48.942;8.404;2022-12-17T01:18:52;25.17;;;10.20;;
69386;SDS011;56575;48.942;8.404;2022-12-17T01:21:37;22.52;;;9.88;;
69386;SDS011;56575;48.942;8.404;2022-12-17T01:24:22;23.63;;;10.15;;
69386;SDS011;56575;48.942;8.404;2022-12-17T01:27:06;26.00;;;10.55;;
69386;SDS011;56575;48.942;8.404;2022-12-17T01:29:50;22.70;;;9.80;;
69386;SDS011;56575;48.942;8.404;2022-12-17T01:32:35;24.67;;;10.20;;
69386;SDS011;56575;48.942;8.404;2022-12-17T01:35:19;21.48;;;9.15;;
69386;SDS011;56575;48.942;8.404;2022-12-17T01:38:09;25.17;;;10.80;;
69386;SDS011;56575;48.942;8.404;2022-12-17T01:40:57;22.77;;;9.32;;
69386;SDS011;56575;48.942;8.404;2022-12-17T01:43:40;22.88;;;8.95;;
69386;SDS011;56575;48.942;8.404;2022-12-17T01:46:25;22.87;;;9.60;;
69386;SDS011;56575;48.942;8.404;2022-12-17T01:49:11;22.20;;;9.43;;
69386;SDS011;56575;48.942;8.404;2022-12-17T01:51:57;21.95;;;9.25;;
69386;SDS011;56575;48.942;8.404;2022-12-17T01:54:42;25.98;;;10.13;;
69386;SDS011;56575;48.942;8.404;2022-12-17T01:57:27;23.40;;;9.48;;
69386;SDS011;56575;48.942;8.404;2022-12-17T02:00:12;25.77;;;10.03;;
69386;SDS011;56575;48.942;8.404;2022-12-17T02:02:57;21.98;;;9.00;;
69386;SDS011;56575;48.942;8.404;2022-12-17T02:05:58;25.52;;;10.15;;
69386;SDS011;56575;48.942;8.404;2022-12-17T02:15:18;19.90;;;8.83;;
69386;SDS011;56575;48.942;8.404;2022-12-17T02:18:07;25.10;;;8.93;;
69386;SDS011;56575;48.942;8.404;2022-12-17T02:20:55;23.60;;;9.75;;
69386;SDS011;56575;48.942;8.404;2022-12-17T02:26:50;19.05;;;8.75;;
69386;SDS011;56575;48.942;8.404;2022-12-17T02:29:38;20.80;;;9.13;;
69386;SDS011;56575;48.942;8.404;2022-12-17T02:32:25;22.60;;;8.93;;
69386;SDS011;56575;48.942;8.404;2022-12-17T02:35:12;20.23;;;8.55;;
69386;SDS011;56575;48.942;8.404;2022-12-17T02:37:59;24.27;;;9.60;;
69386;SDS011;56575;48.942;8.404;2022-12-17T02:40:44;25.23;;;10.18;;
69386;SDS011;56575;48.942;8.404;2022-12-17T02:43:29;27.53;;;9.60;;
69386;SDS011;56575;48.942;8.404;2022-12-17T02:46:16;24.92;;;9.73;;
69386;SDS011;56575;48.942;8.404;2022-12-17T02:49:02;23.17;;;9.20;;
69386;SDS011;56575;48.942;8.404;2022-12-17T02:51:57;24.67;;;9.32;;
69386;SDS011;56575;48.942;8.404;2022-12-17T02:54:42;22.90;;;8.60;;
69386;SDS011;56575;48.942;8.404;2022-12-17T02:57:26;24.83;;;9.30;;
69386;SDS011;56575;48.942;8.404;2022-12-17T03:00:11;20.95;;;9.23;;
69386;SDS011;56575;48.942;8.404;2022-12-17T03:02:56;22.70;;;9.32;;
69386;SDS011;56575;48.942;8.404;2022-12-17T03:05:40;20.73;;;8.52;;
69386;SDS011;56575;48.942;8.404;2022-12-17T03:08:24;22.10;;;9.13;;
69386;SDS011;56575;48.942;8.404;2022-12-17T03:11:08;20.00;;;8.50;;
69386;SDS011;56575;48.942;8.404;2022-12-17T03:13:52;21.90;;;8.30;;
69386;SDS011;56575;48.942;8.404;2022-12-17T03:16:37;21.13;;;9.00;;
69386;SDS011;56575;48.942;8.404;2022-12-17T03:19:29;22.58;;;8.25;;
69386;SDS011;56575;48.942;8.404;2022-12-17T03:22:12;19.52;;;8.35;;
69386;SDS011;56575;48.942;8.404;2022-12-17T03:24:57;20.07;;;8.33;;
69386;SDS011;56575;48.942;8.404;2022-12-17T03:27:41;23.50;;;8.57;;
69386;SDS011;56575;48.942;8.404;2022-12-17T03:30:25;21.38;;;8.52;;
69386;SDS011;56575;48.942;8.404;2022-12-17T03:33:08;21.83;;;8.35;;
69386;SDS011;56575;48.942;8.404;2022-12-17T03:35:53;22.48;;;8.43;;
69386;SDS011;56575;48.942;8.404;2022-12-17T03:38:39;18.67;;;8.43;;
69386;SDS011;56575;48.942;8.404;2022-12-17T03:41:23;20.40;;;8.40;;
69386;SDS011;56575;48.942;8.404;2022-12-17T03:44:08;19.80;;;7.95;;
69386;SDS011;56575;48.942;8.404;2022-12-17T03:46:52;18.77;;;7.50;;
69386;SDS011;56575;48.942;8.404;2022-12-17T03:49:36;22.02;;;8.80;;
69386;SDS011;56575;48.942;8.404;2022-12-17T03:52:20;18.47;;;7.47;;
69386;SDS011;56575;48.942;8.404;2022-12-17T03:55:05;19.40;;;8.02;;
69386;SDS011;56575;48.942;8.404;2022-12-17T03:57:50;19.08;;;7.88;;
69386;SDS011;56575;48.942;8.404;2022-12-17T04:00:36;21.02;;;7.80;;
69386;SDS011;56575;48.942;8.404;2022-12-17T04:03:20;24.25;;;8.88;;
69386;SDS011;56575;48.942;8.404;2022-12-17T04:06:04;18.10;;;7.40;;
69386;SDS011;56575;48.942;8.404;2022-12-17T04:08:48;19.65;;;8.50;;
69386;SDS011;56575;48.942;8.404;2022-12-17T04:11:32;23.63;;;8.07;;
69386;SDS011;56575;48.942;8.404;2022-12-17T04:14:16;20.08;;;7.50;;
69386;SDS011;56575;48.942;8.404;2022-12-17T04:17:00;19.95;;;7.40;;
69386;SDS011;56575;48.942;8.404;2022-12-17T04:19:45;18.97;;;7.47;;
69386;SDS011;56575;48.942;8.404;2022-12-17T04:22:28;18.50;;;7.53;;
69386;SDS011;56575;48.942;8.404;2022-12-17T04:25:12;18.50;;;7.25;;
69386;SDS011;56575;48.942;8.404;2022-12-17T04:27:56;18.05;;;7.70;;
69386;SDS011;56575;48.942;8.404;2022-12-17T04:30:41;18.38;;;7.47;;
69386;SDS011;56575;48.942;8.404;2022-12-17T04:33:25;21.67;;;6.90;;
69386;SDS011;56575;48.942;8.404;2022-12-17T04:36:08;17.88;;;6.70;;
69386;SDS011;56575;48.942;8.404;2022-12-17T04:39:09;26.13;;;9.82;;
69386;SDS011;56575;48.942;8.404;2022-12-17T04:41:53;19.88;;;7.30;;
69386;SDS011;56575;48.942;8.404;2022-12-17T04:44:37;17.80;;;6.90;;
69386;SDS011;56575;48.942;8.404;2022-12-17T04:47:22;16.30;;;6.20;;
69386;SDS011;56575;48.942;8.404;2022-12-17T04:50:06;16.05;;;6.55;;
69386;SDS011;56575;48.942;8.404;2022-12-17T04:52:58;21.25;;;7.00;;
69386;SDS011;56575;48.942;8.404;2022-12-17T04:55:43;19.83;;;6.72;;
69386;SDS011;56575;48.942;8.404;2022-12-17T04:58:27;17.00;;;6.97;;
69386;SDS011;56575;48.942;8.404;2022-12-17T05:01:12;20.83;;;7.43;;
69386;SDS011;56575;48.942;8.404;2022-12-17T05:03:56;16.23;;;6.72;;
69386;SDS011;56575;48.942;8.404;2022-12-17T05:06:41;17.73;;;7.00;;
69386;SDS011;56575;48.942;8.404;2022-12-17T05:09:25;17.48;;;6.55;;
69386;SDS011;56575;48.942;8.404;2022-12-17T05:12:09;20.48;;;7.28;;
69386;SDS011;56575;48.942;8.404;2022-12-17T05:14:53;18.50;;;6.67;;
69386;SDS011;56575;48.942;8.404;2022-12-17T05:17:37;16.63;;;6.43;;
69386;SDS011;56575;48.942;8.404;2022-12-17T05:20:21;15.82;;;6.50;;
69386;SDS011;56575;48.942;8.404;2022-12-17T05:23:06;13.88;;;5.43;;
69386;SDS011;56575;48.942;8.404;2022-12-17T05:25:55;15.95;;;5.95;;
69386;SDS011;56575;48.942;8.404;2022-12-17T05:28:48;17.10;;;5.30;;
69386;SDS011;56575;48.942;8.404;2022-12-17T05:31:32;13.50;;;5.97;;
69386;SDS011;56575;48.942;8.404;2022-12-17T05:34:16;15.68;;;5.57;;
69386;SDS011;56575;48.942;8.404;2022-12-17T05:37:00;16.33;;;6.63;;
69386;SDS011;56575;48.942;8.404;2022-12-17T05:39:44;13.52;;;5.93;;
69386;SDS011;56575;48.942;8.404;2022-12-17T05:42:28;15.27;;;6.30;;
69386;SDS011;56575;48.942;8.404;2022-12-17T05:45:12;15.07;;;5.95;;
69386;SDS011;56575;48.942;8.404;2022-12-17T05:47:56;16.42;;;6.45;;
69386;SDS011;56575;48.942;8.404;2022-12-17T05:50:41;14.88;;;5.55;;
69386;SDS011;56575;48.942;8.404;2022-12-17T05:53:25;18.15;;;6.68;;
69386;SDS011;56575;48.942;8.404;2022-12-17T05:56:08;16.97;;;6.33;;
69386;SDS011;56575;48.942;8.404;2022-12-17T05:58:52;16.85;;;7.10;;
69386;SDS011;56575;48.942;8.404;2022-12-17T06:01:53;17.05;;;5.88;;
69386;SDS011;56575;48.942;8.404;2022-12-17T06:04:37;16.17;;;6.07;;
69386;SDS011;56575;48.942;8.404;2022-12-17T06:07:21;15.35;;;6.00;;
69386;SDS011;56575;48.942;8.404;2022-12-17T06:10:04;15.43;;;5.77;;
69386;SDS011;56575;48.942;8.404;2022-12-17T06:12:55;15.80;;;6.00;;
69386;SDS011;56575;48.942;8.404;2022-12-17T06:15:39;15.20;;;6.20;;
69386;SDS011;56575;48.942;8.404;2022-12-17T06:18:23;15.07;;;5.50;;
69386;SDS011;56575;48.942;8.404;2022-12-17T06:21:07;12.38;;;5.22;;
69386;SDS011;56575;48.942;8.404;2022-12-17T06:23:51;18.40;;;5.80;;
69386;SDS011;56575;48.942;8.404;2022-12-17T06:26:35;15.10;;;6.13;;
69386;SDS011;56575;48.942;8.404;2022-12-17T06:29:19;18.83;;;6.95;;
69386;SDS011;56575;48.942;8.404;2022-12-17T06:32:03;15.05;;;6.18;;
69386;SDS011;56575;48.942;8.404;2022-12-17T06:34:47;19.13;;;6.50;;
69386;SDS011;56575;48.942;8.404;2022-12-17T06:37:31;23.63;;;7.63;;
69386;SDS011;56575;48.942;8.404;2022-12-17T06:40:15;27.80;;;8.55;;
69386;SDS011;56575;48.942;8.404;2022-12-17T06:42:59;21.73;;;8.27;;
69386;SDS011;56575;48.942;8.404;2022-12-17T06:45:43;24.35;;;7.93;;
69386;SDS011;56575;48.942;8.404;2022-12-17T06:48:27;22.42;;;7.63;;
69386;SDS011;56575;48.942;8.404;2022-12-17T06:51:11;23.07;;;8.33;;
69386;SDS011;56575;48.942;8.404;2022-12-17T06:53:55;25.10;;;9.13;;
69386;SDS011;56575;48.942;8.404;2022-12-17T06:56:49;20.65;;;8.00;;
69386;SDS011;56575;48.942;8.404;2022-12-17T06:59:33;18.33;;;7.30;;
69386;SDS011;56575;48.942;8.404;2022-12-17T07:02:18;20.85;;;6.80;;
69386;SDS011;56575;48.942;8.404;2022-12-17T07:05:01;22.60;;;6.77;;
69386;SDS011;56575;48.942;8.404;2022-12-17T07:07:45;20.15;;;7.93;;
69386;SDS011;56575;48.942;8.404;2022-12-17T07:10:29;20.00;;;8.45;;
69386;SDS011;56575;48.942;8.404;2022-12-17T07:13:13;19.08;;;8.07;;
69386;SDS011;56575;48.942;8.404;2022-12-17T07:15:57;22.52;;;7.80;;
69386;SDS011;56575;48.942;8.404;2022-12-17T07:18:41;18.90;;;6.87;;
69386;SDS011;56575;48.942;8.404;2022-12-17T07:21:26;17.13;;;5.85;;
69386;SDS011;56575;48.942;8.404;2022-12-17T07:24:10;17.90;;;6.22;;
69386;SDS011;56575;48.942;8.404;2022-12-17T07:26:54;16.10;;;6.25;;
69386;SDS011;56575;48.942;8.404;2022-12-17T07:29:39;18.70;;;6.32;;
69386;SDS011;56575;48.942;8.404;2022-12-17T07:32:23;19.10;;;7.20;;
69386;SDS011;56575;48.942;8.404;2022-12-17T07:35:07;23.02;;;8.27;;
69386;SDS011;56575;48.942;8.404;2022-12-17T07:38:00;18.25;;;7.82;;
69386;SDS011;56575;48.942;8.404;2022-12-17T07:40:45;21.30;;;10.88;;
69386;SDS011;56575;48.942;8.404;2022-12-17T07:43:30;19.08;;;7.70;;
69386;SDS011;56575;48.942;8.404;2022-12-17T07:46:13;18.43;;;8.27;;
69386;SDS011;56575;48.942;8.404;2022-12-17T07:48:57;18.85;;;7.47;;
69386;SDS011;56575;48.942;8.404;2022-12-17T07:51:41;19.23;;;8.95;;
69386;SDS011;56575;48.942;8.404;2022-12-17T07:54:25;18.75;;;8.18;;
69386;SDS011;56575;48.942;8.404;2022-12-17T07:57:09;16.15;;;6.82;;
69386;SDS011;56575;48.942;8.404;2022-12-17T07:59:53;21.03;;;7.30;;
69386;SDS011;56575;48.942;8.404;2022-12-17T08:02:37;21.23;;;11.75;;
69386;SDS011;56575;48.942;8.404;2022-12-17T08:05:21;20.77;;;7.70;;
69386;SDS011;56575;48.942;8.404;2022-12-17T08:08:10;17.00;;;6.75;;
69386;SDS011;56575;48.942;8.404;2022-12-17T08:10:55;18.77;;;7.22;;
69386;SDS011;56575;48.942;8.404;2022-12-17T08:13:39;24.40;;;8.37;;
69386;SDS011;56575;48.942;8.404;2022-12-17T08:16:23;27.00;;;8.95;;
69386;SDS011;56575;48.942;8.404;2022-12-17T08:19:07;31.50;;;10.10;;
69386;SDS011;56575;48.942;8.404;2022-12-17T08:21:51;26.70;;;9.90;;
69386;SDS011;56575;48.942;8.404;2022-12-17T08:24:35;24.45;;;10.20;;
69386;SDS011;56575;48.942;8.404;2022-12-17T08:27:19;22.37;;;9.17;;
69386;SDS011;56575;48.942;8.404;2022-12-17T08:30:03;22.92;;;9.02;;
69386;SDS011;56575;48.942;8.404;2022-12-17T08:32:48;27.58;;;9.18;;
69386;SDS011;56575;48.942;8.404;2022-12-17T08:35:32;22.35;;;8.18;;
69386;SDS011;56575;48.942;8.404;2022-12-17T08:38:17;20.20;;;7.72;;
69386;SDS011;56575;48.942;8.404;2022-12-17T08:41:01;21.57;;;8.33;;
69386;SDS011;56575;48.942;8.404;2022-12-17T08:43:44;21.38;;;8.60;;
69386;SDS011;56575;48.942;8.404;2022-12-17T08:46:28;30.73;;;10.15;;
69386;SDS011;56575;48.942;8.404;2022-12-17T08:49:12;84.57;;;13.30;;
69386;SDS011;56575;48.942;8.404;2022-12-17T08:51:58;44.42;;;12.15;;
69386;SDS011;56575;48.942;8.404;2022-12-17T08:54:42;29.17;;;9.90;;
69386;SDS011;56575;48.942;8.404;2022-12-17T08:57:26;29.05;;;9.45;;
69386;SDS011;56575;48.942;8.404;2022-12-17T09:00:10;26.73;;;9.60;;
69386;SDS011;56575;48.942;8.404;2022-12-17T09:02:57;25.20;;;9.07;;
69386;SDS011;56575;48.942;8.404;2022-12-17T09:05:43;24.00;;;9.95;;
69386;SDS011;56575;48.942;8.404;2022-12-17T09:08:27;23.97;;;9.83;;
69386;SDS011;56575;48.942;8.404;2022-12-17T09:11:11;37.08;;;11.48;;
69386;SDS011;56575;48.942;8.404;2022-12-17T09:13:54;42.03;;;11.43;;
69386;SDS011;56575;48.942;8.404;2022-12-17T09:16:38;26.35;;;10.77;;
69386;SDS011;56575;48.942;8.404;2022-12-17T09:19:22;26.10;;;10.65;;
69386;SDS011;56575;48.942;8.404;2022-12-17T09:22:06;26.90;;;10.90;;
69386;SDS011;56575;48.942;8.404;2022-12-17T09:24:50;25.10;;;11.23;;
69386;SDS011;56575;48.942;8.404;2022-12-17T09:27:34;29.63;;;11.10;;
69386;SDS011;56575;48.942;8.404;2022-12-17T09:30:18;54.25;;;13.63;;
69386;SDS011;56575;48.942;8.404;2022-12-17T09:33:02;46.75;;;12.32;;
69386;SDS011;56575;48.942;8.404;2022-12-17T09:35:46;28.60;;;10.80;;
69386;SDS011;56575;48.942;8.404;2022-12-17T09:38:30;28.23;;;10.75;;
69386;SDS011;56575;48.942;8.404;2022-12-17T09:41:27;27.38;;;10.68;;
69386;SDS011;56575;48.942;8.404;2022-12-17T09:44:21;27.60;;;11.48;;
69386;SDS011;56575;48.942;8.404;2022-12-17T09:50:12;26.57;;;11.33;;
69386;SDS011;56575;48.942;8.404;2022-12-17T09:52:58;28.20;;;10.98;;
69386;SDS011;56575;48.942;8.404;2022-12-17T09:55:48;27.27;;;11.02;;
69386;SDS011;56575;48.942;8.404;2022-12-17T09:58:35;30.00;;;10.95;;
69386;SDS011;56575;48.942;8.404;2022-12-17T10:01:31;38.90;;;12.70;;
69386;SDS011;56575;48.942;8.404;2022-12-17T10:07:21;29.70;;;11.45;;
69386;SDS011;56575;48.942;8.404;2022-12-17T10:10:14;28.88;;;11.35;;
69386;SDS011;56575;48.942;8.404;2022-12-17T10:13:01;50.67;;;14.88;;
69386;SDS011;56575;48.942;8.404;2022-12-17T10:15:44;44.25;;;14.40;;
69386;SDS011;56575;48.942;8.404;2022-12-17T10:18:28;35.23;;;12.53;;
69386;SDS011;56575;48.942;8.404;2022-12-17T10:21:13;37.75;;;13.75;;
69386;SDS011;56575;48.942;8.404;2022-12-17T10:24:05;68.82;;;23.80;;
69386;SDS011;56575;48.942;8.404;2022-12-17T10:26:51;36.70;;;15.75;;
69386;SDS011;56575;48.942;8.404;2022-12-17T10:29:35;34.30;;;13.10;;
69386;SDS011;56575;48.942;8.404;2022-12-17T10:32:23;59.43;;;16.03;;
69386;SDS011;56575;48.942;8.404;2022-12-17T10:38:08;39.13;;;14.02;;
69386;SDS011;56575;48.942;8.404;2022-12-17T10:40:53;40.30;;;14.18;;
69386;SDS011;56575;48.942;8.404;2022-12-17T10:43:38;39.17;;;14.63;;
69386;SDS011;56575;48.942;8.404;2022-12-17T10:46:26;36.67;;;13.33;;
69386;SDS011;56575;48.942;8.404;2022-12-17T10:52:06;47.17;;;14.82;;
69386;SDS011;56575;48.942;8.404;2022-12-17T10:55:05;42.72;;;15.55;;
69386;SDS011;56575;48.942;8.404;2022-12-17T10:58:12;43.80;;;18.55;;
69386;SDS011;56575;48.942;8.404;2022-12-17T11:00:58;44.23;;;16.60;;
69386;SDS011;56575;48.942;8.404;2022-12-17T11:03:48;50.50;;;16.42;;
69386;SDS011;56575;48.942;8.404;2022-12-17T11:06:48;39.65;;;15.63;;
69386;SDS011;56575;48.942;8.404;2022-12-17T11:09:41;39.03;;;14.77;;
69386;SDS011;56575;48.942;8.404;2022-12-17T11:12:36;40.13;;;15.10;;
69386;SDS011;56575;48.942;8.404;2022-12-17T11:15:36;37.07;;;14.47;;
69386;SDS011;56575;48.942;8.404;2022-12-17T11:18:28;41.10;;;14.88;;
69386;SDS011;56575;48.942;8.404;2022-12-17T11:21:20;41.45;;;14.88;;
69386;SDS011;56575;48.942;8.404;2022-12-17T11:24:10;38.40;;;14.95;;
69386;SDS011;56575;48.942;8.404;2022-12-17T11:27:00;45.15;;;16.90;;
69386;SDS011;56575;48.942;8.404;2022-12-17T11:29:47;46.13;;;16.30;;
69386;SDS011;56575;48.942;8.404;2022-12-17T11:35:47;50.90;;;17.33;;
69386;SDS011;56575;48.942;8.404;2022-12-17T11:38:56;39.00;;;14.85;;
69386;SDS011;56575;48.942;8.404;2022-12-17T11:41:54;41.40;;;15.75;;
69386;SDS011;56575;48.942;8.404;2022-12-17T11:44:48;47.83;;;17.10;;
69386;SDS011;56575;48.942;8.404;2022-12-17T11:47:58;44.40;;;16.75;;
69386;SDS011;56575;48.942;8.404;2022-12-17T11:53:54;47.15;;;17.45;;
69386;SDS011;56575;48.942;8.404;2022-12-17T11:57:19;43.28;;;17.00;;
69386;SDS011;56575;48.942;8.404;2022-12-17T12:00:14;40.03;;;15.97;;
69386;SDS011;56575;48.942;8.404;2022-12-17T12:06:00;43.15;;;17.17;;
69386;SDS011;56575;48.942;8.404;2022-12-17T12:11:49;39.88;;;17.05;;
69386;SDS011;56575;48.942;8.404;2022-12-17T12:27:09;41.50;;;18.23;;
69386;SDS011;56575;48.942;8.404;2022-12-17T12:30:07;38.33;;;18.13;;
69386;SDS011;56575;48.942;8.404;2022-12-17T12:36:03;41.00;;;19.13;;
69386;SDS011;56575;48.942;8.404;2022-12-17T12:38:52;41.60;;;18.35;;
69386;SDS011;56575;48.942;8.404;2022-12-17T12:44:39;45.27;;;18.87;;
69386;SDS011;56575;48.942;8.404;2022-12-17T12:48:17;44.17;;;18.77;;
69386;SDS011;56575;48.942;8.404;2022-12-17T12:50:47;44.47;;;19.20;;
69386;SDS011;56575;48.942;8.404;2022-12-17T12:53:56;49.67;;;19.80;;
69386;SDS011;56575;48.942;8.404;2022-12-17T12:56:41;52.03;;;20.20;;
69386;SDS011;56575;48.942;8.404;2022-12-17T12:59:32;51.93;;;19.20;;
69386;SDS011;56575;48.942;8.404;2022-12-17T13:05:22;49.10;;;18.60;;
69386;SDS011;56575;48.942;8.404;2022-12-17T13:08:00;45.85;;;19.27;;
69386;SDS011;56575;48.942;8.404;2022-12-17T13:10:46;52.65;;;20.00;;
69386;SDS011;56575;48.942;8.404;2022-12-17T13:13:45;44.80;;;18.80;;
69386;SDS011;56575;48.942;8.404;2022-12-17T13:19:01;43.83;;;18.85;;
69386;SDS011;56575;48.942;8.404;2022-12-17T13:21:28;44.53;;;18.95;;
69386;SDS011;56575;48.942;8.404;2022-12-17T13:23:56;48.15;;;19.55;;
69386;SDS011;56575;48.942;8.404;2022-12-17T13:29:36;43.03;;;18.52;;
69386;SDS011;56575;48.942;8.404;2022-12-17T13:32:06;43.30;;;19.25;;
69386;SDS011;56575;48.942;8.404;2022-12-17T13:34:43;50.38;;;19.50;;
69386;SDS011;56575;48.942;8.404;2022-12-17T13:37:39;52.35;;;19.88;;
69386;SDS011;56575;48.942;8.404;2022-12-17T13:43:04;46.35;;;19.33;;
69386;SDS011;56575;48.942;8.404;2022-12-17T13:45:39;47.92;;;19.42;;
69386;SDS011;56575;48.942;8.404;2022-12-17T13:48:15;55.80;;;20.90;;
69386;SDS011;56575;48.942;8.404;2022-12-17T13:50:51;50.08;;;18.42;;
69386;SDS011;56575;48.942;8.404;2022-12-17T13:53:21;46.50;;;18.03;;
69386;SDS011;56575;48.942;8.404;2022-12-17T13:55:50;48.60;;;19.48;;
69386;SDS011;56575;48.942;8.404;2022-12-17T13:58:21;47.80;;;19.30;;
69386;SDS011;56575;48.942;8.404;2022-12-17T14:00:48;44.63;;;18.17;;
69386;SDS011;56575;48.942;8.404;2022-12-17T14:03:16;47.92;;;19.30;;
69386;SDS011;56575;48.942;8.404;2022-12-17T14:05:45;45.60;;;18.37;;
69386;SDS011;56575;48.942;8.404;2022-12-17T14:08:11;50.70;;;19.00;;
69386;SDS011;56575;48.942;8.404;2022-12-17T14:10:45;46.23;;;17.63;;
69386;SDS011;56575;48.942;8.404;2022-12-17T14:13:15;45.92;;;17.55;;
69386;SDS011;56575;48.942;8.404;2022-12-17T14:15:48;47.60;;;18.77;;
69386;SDS011;56575;48.942;8.404;2022-12-17T14:18:17;48.58;;;18.08;;
69386;SDS011;56575;48.942;8.404;2022-12-17T14:20:45;49.25;;;19.45;;
69386;SDS011;56575;48.942;8.404;2022-12-17T14:23:19;56.47;;;20.67;;
69386;SDS011;56575;48.942;8.404;2022-12-17T14:25:47;52.50;;;19.45;;
69386;SDS011;56575;48.942;8.404;2022-12-17T14:31:01;48.78;;;18.42;;
69386;SDS011;56575;48.942;8.404;2022-12-17T14:33:30;52.92;;;19.25;;
69386;SDS011;56575;48.942;8.404;2022-12-17T14:36:21;46.73;;;17.67;;
69386;SDS011;56575;48.942;8.404;2022-12-17T14:38:51;48.53;;;18.75;;
69386;SDS011;56575;48.942;8.404;2022-12-17T14:41:18;53.65;;;20.35;;
69386;SDS011;56575;48.942;8.404;2022-12-17T14:44:03;49.05;;;19.17;;
69386;SDS011;56575;48.942;8.404;2022-12-17T14:46:29;49.38;;;18.63;;
69386;SDS011;56575;48.942;8.404;2022-12-17T14:48:56;49.37;;;19.27;;
69386;SDS011;56575;48.942;8.404;2022-12-17T14:51:31;53.08;;;20.30;;
69386;SDS011;56575;48.942;8.404;2022-12-17T14:56:46;45.70;;;17.95;;
69386;SDS011;56575;48.942;8.404;2022-12-17T14:59:24;45.15;;;18.35;;
69386;SDS011;56575;48.942;8.404;2022-12-17T15:02:04;46.30;;;19.23;;
69386;SDS011;56575;48.942;8.404;2022-12-17T15:04:47;49.55;;;19.70;;
69386;SDS011;56575;48.942;8.404;2022-12-17T15:07:21;49.70;;;18.75;;
69386;SDS011;56575;48.942;8.404;2022-12-17T15:09:49;51.53;;;19.98;;
69386;SDS011;56575;48.942;8.404;2022-12-17T15:12:16;52.38;;;19.63;;
69386;SDS011;56575;48.942;8.404;2022-12-17T15:14:42;50.93;;;19.13;;
69386;SDS011;56575;48.942;8.404;2022-12-17T15:17:08;55.50;;;19.35;;
69386;SDS011;56575;48.942;8.404;2022-12-17T15:19:33;51.53;;;19.57;;
69386;SDS011;56575;48.942;8.404;2022-12-17T15:21:58;52.87;;;19.80;;
69386;SDS011;56575;48.942;8.404;2022-12-17T15:24:24;53.80;;;19.83;;
69386;SDS011;56575;48.942;8.404;2022-12-17T15:26:49;55.10;;;19.87;;
69386;SDS011;56575;48.942;8.404;2022-12-17T15:29:14;58.03;;;22.03;;
69386;SDS011;56575;48.942;8.404;2022-12-17T15:31:40;58.70;;;20.97;;
69386;SDS011;56575;48.942;8.404;2022-12-17T15:34:05;60.83;;;21.43;;
69386;SDS011;56575;48.942;8.404;2022-12-17T15:36:31;58.70;;;22.00;;
69386;SDS011;56575;48.942;8.404;2022-12-17T15:38:57;60.20;;;21.52;;
69386;SDS011;56575;48.942;8.404;2022-12-17T15:41:24;60.97;;;23.23;;
69386;SDS011;56575;48.942;8.404;2022-12-17T15:44:09;58.40;;;20.20;;
69386;SDS011;56575;48.942;8.404;2022-12-17T15:46:34;58.88;;;21.65;;
69386;SDS011;56575;48.942;8.404;2022-12-17T15:48:59;55.67;;;20.53;;
69386;SDS011;56575;48.942;8.404;2022-12-17T15:51:25;60.13;;;22.17;;
69386;SDS011;56575;48.942;8.404;2022-12-17T15:53:51;64.13;;;22.42;;
69386;SDS011;56575;48.942;8.404;2022-12-17T15:56:19;60.53;;;21.73;;
69386;SDS011;56575;48.942;8.404;2022-12-17T15:58:49;59.42;;;21.35;;
69386;SDS011;56575;48.942;8.404;2022-12-17T16:01:14;57.87;;;21.10;;
69386;SDS011;56575;48.942;8.404;2022-12-17T16:03:40;62.03;;;21.90;;
69386;SDS011;56575;48.942;8.404;2022-12-17T16:06:06;57.05;;;21.02;;
69386;SDS011;56575;48.942;8.404;2022-12-17T16:08:32;64.93;;;23.17;;
69386;SDS011;56575;48.942;8.404;2022-12-17T16:10:57;67.30;;;23.40;;
69386;SDS011;56575;48.942;8.404;2022-12-17T16:13:23;162.32;;;68.70;;
69386;SDS011;56575;48.942;8.404;2022-12-17T16:15:55;70.70;;;27.93;;
69386;SDS011;56575;48.942;8.404;2022-12-17T16:18:21;64.70;;;22.52;;
69386;SDS011;56575;48.942;8.404;2022-12-17T16:20:48;62.20;;;21.13;;
69386;SDS011;56575;48.942;8.404;2022-12-17T16:23:15;63.65;;;22.38;;
69386;SDS011;56575;48.942;8.404;2022-12-17T16:25:41;57.65;;;21.88;;
69386;SDS011;56575;48.942;8.404;2022-12-17T16:28:07;59.83;;;21.33;;
69386;SDS011;56575;48.942;8.404;2022-12-17T16:30:33;64.03;;;22.40;;
69386;SDS011;56575;48.942;8.404;2022-12-17T16:32:58;61.50;;;22.80;;
69386;SDS011;56575;48.942;8.404;2022-12-17T16:35:23;61.53;;;22.87;;
69386;SDS011;56575;48.942;8.404;2022-12-17T16:37:49;61.58;;;23.48;;
69386;SDS011;56575;48.942;8.404;2022-12-17T16:40:14;70.73;;;22.80;;
69386;SDS011;56575;48.942;8.404;2022-12-17T16:42:40;69.17;;;24.40;;
69386;SDS011;56575;48.942;8.404;2022-12-17T16:45:06;63.00;;;22.33;;
69386;SDS011;56575;48.942;8.404;2022-12-17T16:47:32;63.08;;;21.85;;
69386;SDS011;56575;48.942;8.404;2022-12-17T16:49:57;60.03;;;22.80;;
69386;SDS011;56575;48.942;8.404;2022-12-17T16:52:23;57.47;;;23.20;;
69386;SDS011;56575;48.942;8.404;2022-12-17T16:54:49;62.97;;;23.33;;
69386;SDS011;56575;48.942;8.404;2022-12-17T16:57:14;65.40;;;23.90;;
69386;SDS011;56575;48.942;8.404;2022-12-17T16:59:39;60.33;;;22.77;;
69386;SDS011;56575;48.942;8.404;2022-12-17T17:02:07;65.80;;;22.97;;
69386;SDS011;56575;48.942;8.404;2022-12-17T17:04:37;63.65;;;22.27;;
69386;SDS011;56575;48.942;8.404;2022-12-17T17:07:03;74.03;;;22.87;;